createdAt,value
2023-04-27T00:01:00.762Z,7.46
2023-04-27T00:03:28.514Z,7.46
2023-04-27T00:05:55.169Z,7.37
2023-04-27T00:08:21.849Z,7.36
2023-04-27T00:10:48.300Z,7.32
2023-04-27T00:13:14.745Z,7.31
2023-04-27T00:15:41.191Z,7.41
2023-04-27T00:18:07.805Z,7.36
2023-04-27T00:20:34.263Z,7.36
2023-04-27T00:23:00.750Z,7.39
2023-04-27T00:25:27.231Z,7.25
2023-04-27T00:27:53.674Z,7.07
2023-04-27T00:30:20.132Z,7.22
2023-04-27T00:32:46.861Z,7.30
2023-04-27T00:35:13.418Z,7.31
2023-04-27T00:37:39.897Z,7.29
2023-04-27T00:40:07.993Z,7.36
2023-04-27T00:42:35.480Z,7.34
2023-04-27T00:45:02.024Z,7.31
2023-04-27T00:47:30.548Z,7.36
2023-04-27T00:49:57.030Z,7.36
2023-04-27T00:52:23.603Z,7.38
2023-04-27T00:54:54.836Z,7.11
2023-04-27T00:57:23.205Z,7.14
2023-04-27T00:59:49.626Z,7.20
2023-04-27T01:02:16.851Z,7.31
2023-04-27T01:04:43.834Z,7.24
2023-04-27T01:07:10.258Z,7.34
2023-04-27T01:09:36.676Z,7.27
2023-04-27T01:12:03.608Z,7.37
2023-04-27T01:14:30.080Z,7.15
2023-04-27T01:16:56.550Z,7.22
2023-04-27T01:19:23.431Z,7.22
2023-04-27T01:21:50.005Z,7.31
2023-04-27T01:24:16.773Z,7.27
2023-04-27T01:26:43.150Z,7.38
2023-04-27T01:29:09.560Z,7.18
2023-04-27T01:31:36.067Z,7.04
2023-04-27T01:34:02.511Z,7.01
2023-04-27T01:50:28.592Z,6.10
2023-04-27T01:52:55.031Z,6.33
2023-04-27T01:55:21.437Z,6.60
2023-04-27T01:57:47.868Z,6.80
2023-04-27T02:00:14.578Z,6.88
2023-04-27T02:02:41.114Z,6.95
2023-04-27T02:05:08.003Z,6.82
2023-04-27T02:07:34.371Z,6.98
2023-04-27T02:10:00.803Z,6.82
2023-04-27T02:12:27.224Z,6.90
2023-04-27T02:14:53.630Z,7.04
2023-04-27T02:17:20.062Z,6.91
2023-04-27T02:19:46.483Z,7.05
2023-04-27T02:22:12.954Z,6.89
2023-04-27T02:24:39.367Z,6.98
2023-04-27T02:27:06.145Z,7.04
2023-04-27T02:29:33.245Z,6.67
2023-04-27T02:32:00.246Z,6.92
2023-04-27T02:34:26.743Z,6.98
2023-04-27T02:36:53.176Z,6.96
2023-04-27T02:39:19.632Z,7.03
2023-04-27T02:41:49.307Z,7.05
2023-04-27T02:44:15.825Z,6.90
2023-04-27T02:46:42.364Z,6.91
2023-04-27T02:49:08.839Z,6.93
2023-04-27T02:51:35.407Z,7.02
2023-04-27T02:54:01.854Z,6.95
2023-04-27T02:56:28.761Z,6.82
2023-04-27T02:58:55.156Z,6.95
2023-04-27T03:01:22.103Z,7.04
2023-04-27T03:03:48.841Z,6.71
2023-04-27T03:06:15.361Z,6.88
2023-04-27T03:08:42.118Z,6.73
2023-04-27T03:11:09.412Z,6.91
2023-04-27T03:13:41.932Z,6.61
2023-04-27T03:16:10.362Z,6.77
2023-04-27T03:18:37.622Z,6.70
2023-04-27T03:21:12.038Z,6.80
2023-04-27T03:23:39.190Z,6.77
2023-04-27T03:26:10.324Z,6.75
2023-04-27T03:28:37.289Z,6.95
2023-04-27T03:31:11.749Z,6.80
2023-04-27T03:33:38.760Z,6.81
2023-04-27T03:36:07.264Z,6.95
2023-04-27T03:38:34.465Z,6.91
2023-04-27T03:41:01.129Z,6.89
2023-04-27T03:43:28.260Z,6.91
2023-04-27T03:45:54.812Z,6.83
2023-04-27T03:48:21.758Z,6.90
2023-04-27T03:50:48.348Z,6.91
2023-04-27T03:53:15.048Z,6.77
2023-04-27T03:55:42.350Z,6.90
2023-04-27T03:58:12.647Z,6.65
2023-04-27T04:00:40.932Z,6.73
2023-04-27T04:03:08.089Z,6.70
2023-04-27T04:05:34.892Z,6.78
2023-04-27T04:08:01.411Z,6.80
2023-04-27T04:10:27.900Z,6.62
2023-04-27T04:12:54.413Z,6.88
2023-04-27T04:15:21.046Z,6.89
2023-04-27T04:17:49.215Z,6.87
2023-04-27T04:20:16.109Z,6.92
2023-04-27T04:22:43.271Z,6.87
2023-04-27T04:25:10.127Z,6.95
2023-04-27T04:27:37.663Z,6.98
2023-04-27T04:30:06.620Z,6.77
2023-04-27T04:32:38.080Z,6.92
2023-04-27T04:35:07.969Z,6.98
2023-04-27T04:37:35.476Z,7.05
2023-04-27T04:40:09.109Z,7.03
2023-04-27T04:42:37.531Z,7.04
2023-04-27T04:45:04.478Z,7.15
2023-04-27T04:47:34.559Z,7.09
2023-04-27T04:50:01.559Z,7.17
2023-04-27T04:52:28.086Z,7.29
2023-04-27T04:54:54.539Z,7.14
2023-04-27T04:57:21.335Z,7.25
2023-04-27T04:59:47.940Z,7.08
2023-04-27T05:02:14.557Z,7.20
2023-04-27T05:04:41.065Z,7.28
2023-04-27T05:07:07.660Z,7.03
2023-04-27T05:09:34.119Z,7.07
2023-04-27T05:12:01.887Z,6.97
2023-04-27T05:14:28.428Z,6.99
2023-04-27T05:16:54.961Z,7.29
2023-04-27T05:19:21.656Z,7.14
2023-04-27T05:21:48.045Z,7.34
2023-04-27T05:24:14.497Z,7.25
2023-04-27T05:26:42.766Z,7.30
2023-04-27T05:29:09.391Z,7.42
2023-04-27T05:31:36.049Z,7.51
2023-04-27T05:34:02.620Z,7.58
2023-04-27T05:36:29.121Z,7.36
2023-04-27T05:38:56.014Z,7.34
2023-04-27T05:41:24.092Z,7.34
2023-04-27T05:43:51.603Z,7.55
2023-04-27T05:46:18.241Z,7.51
2023-04-27T05:48:44.779Z,7.37
2023-04-27T05:51:11.254Z,7.56
2023-04-27T05:53:37.697Z,7.52
2023-04-27T05:56:06.690Z,7.70
2023-04-27T05:58:33.677Z,7.94
2023-04-27T06:01:06.212Z,7.99
2023-04-27T06:03:33.142Z,7.82
2023-04-27T06:06:01.983Z,8.07
2023-04-27T06:08:28.581Z,8.67
2023-04-27T06:10:55.193Z,8.92
2023-04-27T06:13:21.798Z,9.19
2023-04-27T06:15:48.341Z,8.86
2023-04-27T06:18:14.896Z,8.66
2023-04-27T06:20:42.195Z,8.51
2023-04-27T06:23:08.673Z,8.40
2023-04-27T06:25:35.825Z,8.84
2023-04-27T06:28:02.298Z,9.40
2023-04-27T06:30:28.785Z,9.37
2023-04-27T06:32:55.285Z,8.96
2023-04-27T06:35:21.806Z,9.28
2023-04-27T06:37:48.348Z,9.42
2023-04-27T06:40:14.928Z,9.00
2023-04-27T06:42:41.400Z,9.05
2023-04-27T06:45:08.400Z,9.65
2023-04-27T06:47:34.820Z,9.61
2023-04-27T06:50:01.270Z,9.34
2023-04-27T06:52:27.718Z,9.20
2023-04-27T06:54:54.302Z,9.00
2023-04-27T06:57:20.735Z,9.91
2023-04-27T06:59:47.164Z,10.09
2023-04-27T07:02:13.596Z,10.25
2023-04-27T07:04:40.258Z,10.02
2023-04-27T07:07:07.083Z,9.74
2023-04-27T07:09:33.756Z,9.53
2023-04-27T07:12:01.384Z,9.24
2023-04-27T07:14:27.999Z,9.24
2023-04-27T07:16:55.068Z,8.96
2023-04-27T07:19:21.540Z,9.04
2023-04-27T07:21:48.051Z,9.14
2023-04-27T07:24:14.493Z,9.43
2023-04-27T07:26:41.456Z,9.24
2023-04-27T07:29:22.916Z,8.99
2023-04-27T07:31:52.032Z,9.25
2023-04-27T07:34:18.826Z,9.70
2023-04-27T07:36:45.323Z,9.50
2023-04-27T07:39:12.627Z,9.34
2023-04-27T07:41:39.284Z,9.52
2023-04-27T07:44:05.729Z,9.60
2023-04-27T07:46:32.340Z,9.89
2023-04-27T07:49:00.429Z,10.99
2023-04-27T07:51:28.765Z,10.60
2023-04-27T07:53:55.732Z,10.57
2023-04-27T07:56:22.381Z,10.95
2023-04-27T07:58:48.812Z,10.78
2023-04-27T08:01:15.308Z,10.16
2023-04-27T08:03:42.080Z,10.79
2023-04-27T08:06:08.955Z,10.93
2023-04-27T08:08:35.785Z,11.27
2023-04-27T08:11:02.267Z,11.55
2023-04-27T08:13:28.774Z,11.44
2023-04-27T08:15:59.298Z,10.86
2023-04-27T08:18:27.194Z,11.53
2023-04-27T08:20:54.323Z,11.73
2023-04-27T08:23:21.012Z,11.87
2023-04-27T08:25:48.540Z,11.43
2023-04-27T08:28:15.235Z,10.71
2023-04-27T08:30:42.656Z,10.55
2023-04-27T08:33:09.213Z,9.23
2023-04-27T08:35:35.696Z,9.13
2023-04-27T08:38:02.368Z,9.40
2023-04-27T08:40:28.924Z,9.37
2023-04-27T08:43:01.170Z,9.22
2023-04-27T08:45:28.075Z,10.06
2023-04-27T08:47:54.792Z,10.56
2023-04-27T08:50:24.171Z,10.98
2023-04-27T08:52:51.059Z,10.96
2023-04-27T08:55:17.485Z,10.85
2023-04-27T08:57:57.490Z,10.62
2023-04-27T09:00:25.862Z,10.16
2023-04-27T09:02:52.496Z,10.04
2023-04-27T09:05:20.972Z,10.04
2023-04-27T09:08:16.859Z,10.09
2023-04-27T09:10:47.861Z,9.84
2023-04-27T09:13:15.045Z,9.79
2023-04-27T09:15:44.259Z,9.56
2023-04-27T09:18:22.393Z,9.44
2023-04-27T09:20:49.992Z,9.45
2023-04-27T09:23:28.102Z,9.46
2023-04-27T09:25:56.557Z,9.72
2023-04-27T09:28:24.806Z,10.03
2023-04-27T09:30:53.831Z,10.62
2023-04-27T09:33:31.656Z,9.95
2023-04-27T09:36:04.209Z,9.95
2023-04-27T09:38:31.424Z,10.00
2023-04-27T09:41:00.326Z,9.79
2023-04-27T09:43:28.805Z,10.04
2023-04-27T09:45:56.046Z,9.10
2023-04-27T09:48:23.984Z,9.65
2023-04-27T09:50:51.711Z,9.59
2023-04-27T09:53:29.335Z,9.70
2023-04-27T09:56:14.745Z,9.88
2023-04-27T09:59:03.996Z,9.91
2023-04-27T10:01:41.965Z,10.01
2023-04-27T10:04:35.099Z,10.51
2023-04-27T10:07:04.949Z,10.44
2023-04-27T10:09:37.463Z,9.52
2023-04-27T10:12:14.591Z,10.27
2023-04-27T10:14:51.710Z,9.91
2023-04-27T10:17:18.725Z,9.98
2023-04-27T10:20:04.767Z,9.98
2023-04-27T10:22:48.143Z,9.98
2023-04-27T10:25:23.115Z,10.19
2023-04-27T10:27:52.570Z,10.20
2023-04-27T10:30:20.293Z,10.36
2023-04-27T10:32:51.961Z,10.40
2023-04-27T10:35:20.938Z,10.53
2023-04-27T10:37:47.866Z,10.53
2023-04-27T10:40:17.335Z,10.02
2023-04-27T10:42:45.622Z,10.04
2023-04-27T10:45:15.079Z,10.54
2023-04-27T10:47:43.345Z,10.16
2023-04-27T10:50:14.511Z,10.02
2023-04-27T10:52:42.754Z,10.24
2023-04-27T10:55:22.916Z,10.29
2023-04-27T10:57:54.429Z,9.75
2023-04-27T11:00:25.525Z,10.38
2023-04-27T11:02:56.297Z,10.29
2023-04-27T11:05:33.345Z,10.29
2023-04-27T11:08:08.265Z,10.43
2023-04-27T11:10:38.383Z,10.93
2023-04-27T11:13:13.212Z,11.39
2023-04-27T11:15:57.552Z,11.51
2023-04-27T11:18:26.820Z,11.27
2023-04-27T11:20:55.164Z,11.59
2023-04-27T11:23:32.162Z,11.44
2023-04-27T11:25:58.745Z,11.22
2023-04-27T11:28:26.128Z,11.21
2023-04-27T11:30:59.490Z,11.16
2023-04-27T11:33:27.246Z,10.80
2023-04-27T11:35:56.343Z,11.19
2023-04-27T11:38:23.220Z,10.89
2023-04-27T11:41:00.197Z,9.91
2023-04-27T11:43:27.638Z,10.10
2023-04-27T11:45:55.555Z,10.58
2023-04-27T11:48:27.061Z,10.48
2023-04-27T11:50:53.494Z,10.25
2023-04-27T11:53:39.253Z,10.18
2023-04-27T11:56:07.976Z,10.56
2023-04-27T11:58:36.203Z,10.73
2023-04-27T12:01:04.276Z,10.61
2023-04-27T12:03:31.787Z,10.57
2023-04-27T12:06:11.407Z,10.62
2023-04-27T12:08:43.003Z,10.67
2023-04-27T12:11:09.492Z,10.48
2023-04-27T12:13:36.102Z,10.68
2023-04-27T12:16:02.523Z,10.98
2023-04-27T12:18:29.007Z,11.23
2023-04-27T12:20:55.436Z,11.71
2023-04-27T12:23:21.883Z,11.84
2023-04-27T12:25:48.561Z,11.21
2023-04-27T12:28:19.070Z,11.32
2023-04-27T12:30:45.576Z,11.04
2023-04-27T12:33:12.169Z,11.05
2023-04-27T12:35:38.793Z,11.04
2023-04-27T12:38:05.326Z,10.95
2023-04-27T12:40:33.973Z,11.00
2023-04-27T12:43:01.570Z,11.58
2023-04-27T12:45:28.097Z,11.91
2023-04-27T12:48:03.534Z,11.76
2023-04-27T12:50:32.397Z,11.76
2023-04-27T12:52:59.755Z,11.75
2023-04-27T12:55:33.525Z,11.78
2023-04-27T12:58:01.310Z,12.09
2023-04-27T13:00:29.378Z,11.96
2023-04-27T13:02:56.598Z,11.58
2023-04-27T13:05:23.441Z,11.56
2023-04-27T13:07:49.866Z,11.60
2023-04-27T13:10:16.418Z,11.80
2023-04-27T13:12:42.913Z,11.72
2023-04-27T13:15:10.156Z,11.79
2023-04-27T13:17:36.790Z,11.90
2023-04-27T13:20:03.511Z,11.69
2023-04-27T13:22:29.885Z,11.52
2023-04-27T13:24:56.480Z,11.46
2023-04-27T13:27:25.278Z,11.62
2023-04-27T13:29:51.845Z,11.30
2023-04-27T13:32:18.809Z,11.66
2023-04-27T13:34:45.485Z,11.39
2023-04-27T13:37:12.085Z,10.97
2023-04-27T13:39:38.611Z,10.96
2023-04-27T13:42:05.123Z,10.87
2023-04-27T13:44:31.916Z,10.98
2023-04-27T13:46:58.504Z,11.19
2023-04-27T13:49:26.000Z,11.31
2023-04-27T13:51:52.594Z,11.04
2023-04-27T13:54:20.052Z,11.59
2023-04-27T13:56:46.580Z,11.82
2023-04-27T13:59:13.221Z,12.08
2023-04-27T14:01:40.328Z,12.10
2023-04-27T14:04:07.504Z,11.77
2023-04-27T14:06:34.252Z,11.91
2023-04-27T14:09:00.841Z,11.62
2023-04-27T14:11:27.696Z,11.69
2023-04-27T14:13:56.781Z,11.59
2023-04-27T14:16:24.657Z,11.61
2023-04-27T14:18:52.417Z,11.96
2023-04-27T14:21:22.013Z,12.66
2023-04-27T14:23:58.978Z,12.08
2023-04-27T14:26:25.753Z,12.35
2023-04-27T14:28:52.164Z,12.71
2023-04-27T14:31:18.663Z,12.52
2023-04-27T14:33:45.136Z,12.27
2023-04-27T14:36:11.645Z,12.23
2023-04-27T14:38:38.073Z,12.90
2023-04-27T14:41:04.576Z,12.68
2023-04-27T14:43:31.792Z,13.10
2023-04-27T14:46:05.082Z,13.00
2023-04-27T14:48:38.755Z,13.16
2023-04-27T14:51:06.421Z,12.82
2023-04-27T14:53:33.320Z,12.82
2023-04-27T14:55:59.885Z,12.39
2023-04-27T14:58:26.425Z,11.89
2023-04-27T15:00:52.889Z,11.94
2023-04-27T15:03:20.316Z,11.89
2023-04-27T15:05:46.955Z,12.30
2023-04-27T15:08:13.406Z,12.35
2023-04-27T15:10:39.852Z,12.51
2023-04-27T15:13:06.284Z,12.80
2023-04-27T15:15:32.730Z,12.65
2023-04-27T15:17:59.250Z,12.87
2023-04-27T15:20:25.942Z,13.04
2023-04-27T15:22:52.401Z,13.14
2023-04-27T15:25:19.253Z,13.14
2023-04-27T15:27:45.713Z,13.29
2023-04-27T15:30:13.331Z,12.89
2023-04-27T15:32:39.811Z,13.06
2023-04-27T15:35:06.845Z,13.09
2023-04-27T15:37:35.818Z,12.89
2023-04-27T15:40:03.713Z,13.12
2023-04-27T15:42:30.173Z,12.79
2023-04-27T15:44:57.776Z,12.66
2023-04-27T15:47:24.270Z,12.64
2023-04-27T15:49:57.608Z,12.45
2023-04-27T15:52:27.088Z,12.16
2023-04-27T15:54:53.684Z,12.33
2023-04-27T15:57:20.118Z,12.16
2023-04-27T15:59:46.692Z,12.39
2023-04-27T16:02:13.755Z,12.56
2023-04-27T16:04:40.322Z,12.35
2023-04-27T16:07:07.426Z,12.24
2023-04-27T16:09:34.123Z,12.07
2023-04-27T16:12:01.519Z,12.06
2023-04-27T16:14:27.920Z,11.99
2023-04-27T16:16:56.204Z,11.99
2023-04-27T16:19:22.789Z,11.95
2023-04-27T16:21:49.634Z,12.32
2023-04-27T16:24:16.081Z,12.53
2023-04-27T16:26:42.512Z,12.46
2023-04-27T16:29:08.941Z,12.23
2023-04-27T16:31:35.660Z,12.07
2023-04-27T16:34:02.062Z,11.85
2023-04-27T16:36:28.831Z,11.81
2023-04-27T16:38:55.197Z,11.62
2023-04-27T16:41:22.323Z,11.42
2023-04-27T16:43:50.807Z,11.42
2023-04-27T16:46:17.548Z,11.23
2023-04-27T16:48:44.066Z,11.52
2023-04-27T16:51:10.726Z,11.48
2023-04-27T16:53:37.185Z,11.16
2023-04-27T16:56:03.895Z,11.17
2023-04-27T16:58:30.760Z,11.44
2023-04-27T17:00:58.082Z,10.69
2023-04-27T17:03:25.108Z,11.21
2023-04-27T17:05:52.493Z,11.21
2023-04-27T17:08:21.046Z,11.20
2023-04-27T17:10:47.750Z,11.12
2023-04-27T17:13:16.556Z,11.23
2023-04-27T17:15:43.049Z,11.21
2023-04-27T17:18:10.511Z,11.22
2023-04-27T17:20:38.359Z,11.16
2023-04-27T17:23:07.175Z,11.03
2023-04-27T17:25:33.596Z,11.00
2023-04-27T17:28:01.466Z,11.02
2023-04-27T17:30:28.197Z,10.61
2023-04-27T17:32:54.690Z,10.82
2023-04-27T17:35:21.196Z,10.95
2023-04-27T17:37:47.726Z,10.87
2023-04-27T17:40:16.386Z,10.76
2023-04-27T17:42:42.842Z,10.53
2023-04-27T17:45:09.633Z,10.41
2023-04-27T17:47:36.715Z,10.67
2023-04-27T17:50:03.265Z,10.27
2023-04-27T17:52:29.718Z,10.13
2023-04-27T17:54:56.512Z,10.16
2023-04-27T17:57:22.922Z,10.20
2023-04-27T17:59:50.412Z,9.99
2023-04-27T18:02:17.523Z,9.81
2023-04-27T18:04:44.004Z,9.77
2023-04-27T18:07:10.442Z,9.67
2023-04-27T18:09:36.857Z,9.68
2023-04-27T18:12:06.000Z,9.55
2023-04-27T18:14:32.428Z,9.58
2023-04-27T18:16:58.947Z,9.48
2023-04-27T18:19:25.600Z,9.45
2023-04-27T18:21:52.051Z,9.41
2023-04-27T18:24:18.462Z,9.15
2023-04-27T18:26:44.913Z,9.08
2023-04-27T18:29:11.375Z,9.04
2023-04-27T18:31:38.066Z,8.85
2023-04-27T18:34:04.444Z,8.92
2023-04-27T18:36:31.613Z,8.60
2023-04-27T18:38:58.381Z,8.50
2023-04-27T18:41:24.768Z,8.61
2023-04-27T18:43:51.480Z,8.22
2023-04-27T18:46:18.122Z,8.41
2023-04-27T18:48:44.622Z,8.13
2023-04-27T18:51:11.177Z,8.11
2023-04-27T18:53:37.607Z,8.01
2023-04-27T18:56:04.156Z,8.08
2023-04-27T18:58:30.780Z,8.12
2023-04-27T19:00:57.236Z,7.97
2023-04-27T19:03:24.026Z,7.87
2023-04-27T19:05:52.454Z,7.79
2023-04-27T19:08:18.890Z,7.63
2023-04-27T19:10:45.382Z,7.67
2023-04-27T19:13:12.040Z,7.42
2023-04-27T19:15:38.743Z,7.57
2023-04-27T19:18:10.681Z,7.64
2023-04-27T19:20:38.736Z,7.44
2023-04-27T19:23:05.797Z,7.30
2023-04-27T19:25:32.342Z,7.44
2023-04-27T19:27:59.091Z,7.37
2023-04-27T19:30:25.680Z,7.43
2023-04-27T19:32:52.195Z,7.26
2023-04-27T19:35:20.314Z,7.23
2023-04-27T19:37:46.749Z,7.25
2023-04-27T19:40:13.626Z,7.17
2023-04-27T19:42:40.135Z,7.18
2023-04-27T19:45:07.185Z,6.98
2023-04-27T19:47:33.898Z,7.13
2023-04-27T19:50:00.385Z,7.20
2023-04-27T19:52:26.966Z,6.90
2023-04-27T19:54:54.457Z,6.74
2023-04-27T19:57:21.402Z,6.73
2023-04-27T19:59:48.193Z,6.78
2023-04-27T20:02:14.846Z,6.97
2023-04-27T20:04:41.862Z,6.54
2023-04-27T20:07:08.602Z,6.53
2023-04-27T20:09:35.063Z,6.69
2023-04-27T20:12:01.479Z,6.72
2023-04-27T20:14:30.069Z,6.62
2023-04-27T20:16:56.812Z,6.69
2023-04-27T20:19:25.208Z,6.87
2023-04-27T20:21:51.688Z,6.55
2023-04-27T20:24:18.215Z,6.42
2023-04-27T20:26:44.814Z,6.29
2023-04-27T20:29:11.524Z,6.36
2023-04-27T20:31:38.027Z,6.41
2023-04-27T20:34:04.485Z,6.23
2023-04-27T20:36:32.012Z,6.08
2023-04-27T20:39:02.385Z,6.33
2023-04-27T20:41:28.830Z,6.15
2023-04-27T20:43:55.458Z,6.30
2023-04-27T20:46:21.904Z,6.34
2023-04-27T20:48:48.441Z,6.39
2023-04-27T20:51:15.063Z,6.29
2023-04-27T20:53:41.577Z,5.90
2023-04-27T20:56:08.954Z,6.23
2023-04-27T20:58:41.624Z,6.11
2023-04-27T21:01:08.154Z,6.09
2023-04-27T21:03:35.667Z,6.07
2023-04-27T21:06:02.434Z,6.13
2023-04-27T21:08:29.016Z,6.11
2023-04-27T21:10:57.057Z,5.95
2023-04-27T21:13:24.317Z,5.99
2023-04-27T21:15:50.728Z,6.00
2023-04-27T21:18:29.249Z,5.86
2023-04-27T21:20:57.046Z,5.84
2023-04-27T21:23:23.660Z,5.99
2023-04-27T21:25:50.087Z,6.09
2023-04-27T21:28:16.653Z,5.99
2023-04-27T21:30:43.099Z,5.74
2023-04-27T21:33:09.711Z,5.78
2023-04-27T21:35:36.281Z,5.84
2023-04-27T21:38:02.794Z,5.64
2023-04-27T21:40:29.327Z,5.94
2023-04-27T21:42:56.410Z,5.73
2023-04-27T21:45:23.261Z,5.48
2023-04-27T21:47:49.703Z,5.67
2023-04-27T21:50:16.821Z,5.63
2023-04-27T21:52:43.280Z,5.68
2023-04-27T21:55:10.049Z,5.72
2023-04-27T21:57:36.840Z,5.58
2023-04-27T22:00:08.722Z,5.52
2023-04-27T22:02:35.274Z,5.56
2023-04-27T22:05:02.584Z,5.61
2023-04-27T22:07:29.278Z,5.34
2023-04-27T22:09:55.679Z,5.40
2023-04-27T22:12:22.136Z,5.26
2023-04-27T22:14:48.589Z,5.49
2023-04-27T22:17:15.274Z,5.51
2023-04-27T22:19:42.227Z,5.60
2023-04-27T22:22:09.836Z,5.49
2023-04-27T22:24:36.289Z,5.58
2023-04-27T22:27:04.013Z,5.29
2023-04-27T22:29:30.889Z,5.54
2023-04-27T22:32:09.627Z,5.56
2023-04-27T22:34:37.231Z,5.31
2023-04-27T22:37:03.731Z,5.43
2023-04-27T22:39:30.518Z,5.35
2023-04-27T22:41:57.002Z,5.17
2023-04-27T22:44:23.459Z,5.51
2023-04-27T22:46:49.972Z,5.28
2023-04-27T22:49:17.307Z,5.46
2023-04-27T22:51:43.772Z,5.36
2023-04-27T22:54:10.174Z,5.30
2023-04-27T22:56:36.591Z,5.22
2023-04-27T22:59:03.303Z,5.48
2023-04-27T23:01:32.892Z,5.35
2023-04-27T23:03:59.478Z,5.30
2023-04-27T23:06:28.175Z,5.08
2023-04-27T23:08:54.640Z,5.09
2023-04-27T23:11:21.032Z,5.38
2023-04-27T23:13:50.672Z,5.43
2023-04-27T23:16:17.128Z,5.36
2023-04-27T23:18:43.641Z,5.20
2023-04-27T23:21:11.589Z,5.29
2023-04-27T23:23:38.181Z,5.28
2023-04-27T23:26:11.980Z,5.21
2023-04-27T23:28:38.418Z,5.18
2023-04-27T23:31:04.865Z,5.34
2023-04-27T23:33:31.690Z,5.27
2023-04-27T23:35:58.090Z,5.02
2023-04-27T23:38:24.519Z,5.31
2023-04-27T23:40:52.552Z,5.38
2023-04-27T23:43:19.126Z,5.44
2023-04-27T23:45:50.885Z,5.15
2023-04-27T23:48:17.875Z,5.31
2023-04-27T23:50:44.323Z,5.18
2023-04-27T23:53:10.919Z,5.06
2023-04-27T23:55:37.644Z,4.91
2023-04-27T23:58:04.063Z,5.30
